Flight Track Log - Related Links

Times and Time Zones

All times are in EDT time to prevent confusion due to time zone crossing. See the RBA53 flight status page for this flight to view local times or setup timezone preferences in your user account.

Time Position Orientation Groundspeed Altitude Reporting Facility
EDT Latitude Longitude Course Direction KTS MPH feet Rate Location/Type
Thu 08:28:00 AM 3.7659 116.0809 137° Southeast  Level FlightAware Approximate
Thu 08:29:00 AM 3.6658 116.1732 137° Southeast  Level FlightAware Approximate
Thu 08:30:00 AM 3.5656 116.2654 137° Southeast  Level FlightAware Approximate
Thu 08:31:00 AM 3.4654 116.3577 137° Southeast  Level FlightAware Approximate
Thu 08:32:00 AM 3.3653 116.4499 137° Southeast  Level FlightAware Approximate
Thu 08:33:00 AM 3.2651 116.5421 137° Southeast  Level FlightAware Approximate
Thu 08:34:00 AM 3.1649 116.6343 137° Southeast  Level FlightAware Approximate
Thu 08:35:00 AM 3.0647 116.7265 137° Southeast  Level FlightAware Approximate
Thu 08:36:00 AM 2.9644 116.8186 137° Southeast  Level FlightAware Approximate
Thu 08:37:00 AM 2.8642 116.9108 137° Southeast  Level FlightAware Approximate
Thu 08:38:00 AM 2.7640 117.0029 137° Southeast  Level FlightAware Approximate
Thu 08:39:00 AM 2.6637 117.0950 137° Southeast  Level FlightAware Approximate
Thu 08:40:00 AM 2.5635 117.1871 137° Southeast  Level FlightAware Approximate
Thu 08:41:00 AM 2.4632 117.2792 137° Southeast  Level FlightAware Approximate
Thu 08:42:00 AM 2.3630 117.3713 137° Southeast  Level FlightAware Approximate
Thu 08:43:00 AM 2.2627 117.4633 137° Southeast  Level FlightAware Approximate
Thu 08:44:00 AM 2.1624 117.5554 137° Southeast  Level FlightAware Approximate
Thu 08:45:00 AM 2.0622 117.6474 137° Southeast  Level FlightAware Approximate
Thu 08:46:00 AM 1.9619 117.7394 137° Southeast  Level FlightAware Approximate
Thu 08:47:00 AM 1.8616 117.8314 137° Southeast  Level FlightAware Approximate
Thu 08:48:00 AM 1.7613 117.9234 137° Southeast  Level FlightAware Approximate
Thu 08:49:00 AM 1.6610 118.0154 137° Southeast  Level FlightAware Approximate
Thu 08:50:00 AM 1.5607 118.1074 137° Southeast  Level FlightAware Approximate
Thu 08:51:00 AM 1.4604 118.1993 137° Southeast  Level FlightAware Approximate
Thu 08:52:00 AM 1.3601 118.2913 137° Southeast  Level FlightAware Approximate
Thu 08:53:00 AM 1.2598 118.3832 137° Southeast  Level FlightAware Approximate
Thu 08:54:00 AM 1.1595 118.4752 137° Southeast  Level FlightAware Approximate
Thu 08:55:00 AM 1.0591 118.5671 138° Southeast  Level FlightAware Approximate
Thu 08:56:00 AM 0.9588 118.6590 138° Southeast  Level FlightAware Approximate
Thu 08:57:00 AM 0.8585 118.7510 138° Southeast  Level FlightAware Approximate
Thu 08:58:00 AM 0.7582 118.8429 138° Southeast  Level FlightAware Approximate
Thu 08:59:00 AM 0.6578 118.9348 138° Southeast  Level FlightAware Approximate
Thu 09:00:00 AM 0.5575 119.0267 138° Southeast  Level FlightAware Approximate
Thu 09:01:00 AM 0.4572 119.1186 138° Southeast  Level FlightAware Approximate
Thu 09:02:00 AM 0.3568 119.2105 138° Southeast  Level FlightAware Approximate
Thu 09:03:00 AM 0.2565 119.3025 138° Southeast  Level FlightAware Approximate
Thu 09:04:00 AM 0.1562 119.3943 138° Southeast  Level FlightAware Approximate
Thu 09:05:00 AM 0.0558 119.4863 138° Southeast  Level FlightAware Approximate
Thu 09:06:00 AM -0.0453 119.5773 138° Southeast  Level FlightAware Approximate
Thu 09:07:00 AM -0.1467 119.6680 138° Southeast  Level FlightAware Approximate
Thu 09:08:00 AM -0.2481 119.7588 138° Southeast  Level FlightAware Approximate
Thu 09:09:00 AM -0.3495 119.8495 138° Southeast  Level FlightAware Approximate
Thu 09:10:00 AM -0.4509 119.9402 138° Southeast  Level FlightAware Approximate
Thu 09:11:00 AM -0.5522 120.0310 138° Southeast  Level FlightAware Approximate
Thu 09:12:00 AM -0.6536 120.1217 138° Southeast  Level FlightAware Approximate
Thu 09:13:00 AM -0.7550 120.2125 138° Southeast  Level FlightAware Approximate
Thu 09:14:00 AM -0.8564 120.3032 138° Southeast  Level FlightAware Approximate
Thu 09:15:00 AM -0.9578 120.3940 138° Southeast  Level FlightAware Approximate
Thu 09:16:00 AM -1.0592 120.4847 138° Southeast  Level FlightAware Approximate
Thu 09:17:00 AM -1.1606 120.5755 138° Southeast  Level FlightAware Approximate
Thu 09:18:00 AM -1.2619 120.6663 138° Southeast  Level FlightAware Approximate
Thu 09:19:00 AM -1.3633 120.7570 138° Southeast  Level FlightAware Approximate
Thu 09:20:00 AM -1.4647 120.8478 138° Southeast  Level FlightAware Approximate
Thu 09:21:00 AM -1.5661 120.9386 138° Southeast  Level FlightAware Approximate
Thu 09:22:00 AM -1.6674 121.0294 138° Southeast  Level FlightAware Approximate
Thu 09:23:00 AM -1.7688 121.1202 138° Southeast  Level FlightAware Approximate
Thu 09:24:00 AM -1.8701 121.2111 138° Southeast  Level FlightAware Approximate
Thu 09:25:00 AM -1.9715 121.3019 138° Southeast  Level FlightAware Approximate
Thu 09:26:00 AM -2.0728 121.3927 138° Southeast  Level FlightAware Approximate
Thu 09:27:00 AM -2.1742 121.4836 138° Southeast  Level FlightAware Approximate
Thu 09:28:00 AM -2.2755 121.5745 138° Southeast  Level FlightAware Approximate
Thu 09:29:00 AM -2.3768 121.6654 138° Southeast  Level FlightAware Approximate
Thu 09:30:00 AM -2.4781 121.7562 138° Southeast  Level FlightAware Approximate
Thu 09:31:00 AM -2.5795 121.8472 138° Southeast  Level FlightAware Approximate
Thu 09:32:00 AM -2.6808 121.9381 138° Southeast  Level FlightAware Approximate
Thu 09:33:00 AM -2.7821 122.0290 138° Southeast  Level FlightAware Approximate
Thu 09:34:00 AM -2.8834 122.1200 138° Southeast  Level FlightAware Approximate
Thu 09:35:00 AM -2.9846 122.2109 138° Southeast  Level FlightAware Approximate
Thu 09:36:00 AM -3.0859 122.3019 138° Southeast  Level FlightAware Approximate
Thu 09:37:00 AM -3.1872 122.3929 138° Southeast  Level FlightAware Approximate
Thu 09:38:00 AM -3.2885 122.4839 138° Southeast  Level FlightAware Approximate
Thu 09:39:00 AM -3.3897 122.5750 138° Southeast  Level FlightAware Approximate
Thu 09:40:00 AM -3.4910 122.6661 138° Southeast  Level FlightAware Approximate
Thu 09:41:00 AM -3.5922 122.7571 138° Southeast  Level FlightAware Approximate
Thu 09:42:00 AM -3.6934 122.8482 138° Southeast  Level FlightAware Approximate
Thu 09:43:00 AM -3.7947 122.9393 138° Southeast  Level FlightAware Approximate
Thu 09:44:00 AM -3.8959 123.0305 138° Southeast  Level FlightAware Approximate
Thu 09:45:00 AM -3.9971 123.1217 138° Southeast  Level FlightAware Approximate
Thu 09:46:00 AM -4.0983 123.2128 138° Southeast  Level FlightAware Approximate
Thu 09:47:00 AM -4.1995 123.3040 138° Southeast  Level FlightAware Approximate
Thu 09:48:00 AM -4.3006 123.3953 138° Southeast  Level FlightAware Approximate
Thu 09:49:00 AM -4.4018 123.4865 138° Southeast  Level FlightAware Approximate
Thu 09:50:00 AM -4.5029 123.5778 138° Southeast  Level FlightAware Approximate
Thu 09:51:00 AM -4.6041 123.6691 138° Southeast  Level FlightAware Approximate
Thu 09:52:00 AM -4.7052 123.7605 138° Southeast  Level FlightAware Approximate
Thu 09:53:00 AM -4.8063 123.8518 138° Southeast  Level FlightAware Approximate
Thu 09:54:00 AM -4.9074 123.9432 138° Southeast  Level FlightAware Approximate
Thu 09:55:00 AM -5.0086 124.0345 138° Southeast  Level FlightAware Approximate
Thu 09:56:00 AM -5.1102 124.1254 138° Southeast  Level FlightAware Approximate
Thu 09:57:00 AM -5.2117 124.2163 138° Southeast  Level FlightAware Approximate
Thu 09:58:00 AM -5.3132 124.3073 138° Southeast  Level FlightAware Approximate
Thu 09:59:00 AM -5.4147 124.3984 138° Southeast  Level FlightAware Approximate
Thu 10:00:00 AM -5.5162 124.4894 138° Southeast  Level FlightAware Approximate
Thu 10:01:00 AM -5.6177 124.5805 138° Southeast  Level FlightAware Approximate
Thu 10:02:00 AM -5.7191 124.6716 138° Southeast  Level FlightAware Approximate
Thu 10:03:00 AM -5.8205 124.7627 138° Southeast  Level FlightAware Approximate
Thu 10:04:00 AM -5.9220 124.8539 138° Southeast  Level FlightAware Approximate
Thu 10:05:00 AM -6.0234 124.9451 138° Southeast  Level FlightAware Approximate
Thu 10:06:00 AM -6.1248 125.0364 138° Southeast  Level FlightAware Approximate
Thu 10:07:00 AM -6.2262 125.1277 138° Southeast  Level FlightAware Approximate
Thu 10:08:00 AM -6.3275 125.2190 138° Southeast  Level FlightAware Approximate
Thu 10:09:00 AM -6.4289 125.3103 138° Southeast  Level FlightAware Approximate
Thu 10:10:00 AM -6.5302 125.4017 138° Southeast  Level FlightAware Approximate
Thu 10:11:00 AM -6.6315 125.4931 138° Southeast  Level FlightAware Approximate
Thu 10:12:00 AM -6.7328 125.5846 138° Southeast  Level FlightAware Approximate
Thu 10:13:00 AM -6.8341 125.6761 138° Southeast  Level FlightAware Approximate
Thu 10:14:00 AM -6.9353 125.7676 138° Southeast  Level FlightAware Approximate
Thu 10:15:00 AM -7.0366 125.8592 138° Southeast  Level FlightAware Approximate
Thu 10:16:00 AM -7.1378 125.9508 138° Southeast  Level FlightAware Approximate
Thu 10:17:00 AM -7.2390 126.0425 138° Southeast  Level FlightAware Approximate
Thu 10:18:00 AM -7.3402 126.1342 138° Southeast  Level FlightAware Approximate
Thu 10:19:00 AM -7.4414 126.2259 138° Southeast  Level FlightAware Approximate
Thu 10:20:00 AM -7.5426 126.3177 138° Southeast  Level FlightAware Approximate
Thu 10:21:00 AM -7.6437 126.4095 138° Southeast  Level FlightAware Approximate
Thu 10:22:00 AM -7.7448 126.5014 138° Southeast  Level FlightAware Approximate
Thu 10:23:00 AM -7.8459 126.5933 138° Southeast  Level FlightAware Approximate
Thu 10:24:00 AM -7.9470 126.6853 138° Southeast  Level FlightAware Approximate
Thu 10:25:00 AM -8.0480 126.7773 138° Southeast  Level FlightAware Approximate
Thu 10:26:00 AM -8.1491 126.8693 138° Southeast  Level FlightAware Approximate
Thu 10:27:00 AM -8.2501 126.9614 138° Southeast  Level FlightAware Approximate
Thu 10:28:00 AM -8.3511 127.0536 138° Southeast  Level FlightAware Approximate
Thu 10:29:00 AM -8.4520 127.1458 138° Southeast  Level FlightAware Approximate
Thu 10:30:00 AM -8.5530 127.2380 138° Southeast  Level FlightAware Approximate
Thu 10:31:00 AM -8.6539 127.3303 138° Southeast  Level FlightAware Approximate
Thu 10:32:00 AM -8.7548 127.4226 138° Southeast  Level FlightAware Approximate
Thu 10:33:00 AM -8.8571 127.5163 138° Southeast  Level FlightAware Approximate
Thu 10:34:00 AM -8.9593 127.6099 138° Southeast  Level FlightAware Approximate
Thu 10:35:00 AM -9.0615 127.7037 138° Southeast  Level FlightAware Approximate
Thu 10:36:00 AM -9.1632 127.7986 137° Southeast  Level FlightAware Approximate
Thu 10:37:00 AM -9.2645 127.8938 137° Southeast  Level FlightAware Approximate
Thu 10:38:00 AM -9.3659 127.9891 137° Southeast  Level FlightAware Approximate
Thu 10:39:00 AM -9.4670 128.0842 137° Southeast  Level FlightAware Approximate
Thu 10:40:00 AM -9.5680 128.1794 137° Southeast  Level FlightAware Approximate
Thu 10:40:21 AM -9.4689 128.0782 137° Southeast 489 563 37,000  Level Aus ATC (RADAR)
Thu 10:41:26 AM -9.5772 128.1907 134° Southeast 491 565 37,000  Level Aus ATC (RADAR)
Thu 10:42:31 AM -9.6946 128.2947 139° Southeast 491 565 37,000  Level Aus ATC (RADAR)
Thu 10:43:31 AM -9.7964 128.3974 135° Southeast 493 567 37,000  Level Aus ATC (RADAR)
Thu 10:44:41 AM -9.9196 128.5112 138° Southeast 491 565 37,000  Level Aus ATC (RADAR)
Thu 10:45:46 AM -10.0340 128.6177 137° Southeast 491 565 37,000  Level Aus ATC (RADAR)
Thu 10:46:51 AM -10.1475 128.7236 137° Southeast 490 564 37,000  Level Aus ATC (RADAR)
Thu 10:47:56 AM -10.2559 128.8362 134° Southeast 491 565 37,000  Level Aus ATC (RADAR)
Thu 10:48:12 AM -10.2880 128.8599 137° Southeast 516 594 37,000  Level FlightAware ADS-B
Thu 10:49:01 AM -10.3737 128.9388 139° Southeast 494 568 37,000  Level Aus ATC (RADAR)
Thu 10:49:14 AM -10.3961 128.9624 137° Southeast 518 596 37,000  Level FlightAware ADS-B
Thu 10:49:44 AM -10.4459 129.0098 137° Southeast 519 597 37,000  Level FlightAware ADS-B
Thu 10:50:14 AM -10.4923 129.0537 137° Southeast 519 597 37,000  Level FlightAware ADS-B
Thu 10:50:44 AM -10.5492 129.1079 137° Southeast 519 597 37,000  Level FlightAware ADS-B
Thu 10:51:14 AM -10.5893 129.1460 137° Southeast 521 600 37,000  Level FlightAware ADS-B
Thu 10:51:44 AM -10.6600 129.2133 137° Southeast 521 600 37,000  Level FlightAware ADS-B
Thu 10:52:14 AM -10.7059 129.2569 137° Southeast 521 600 37,000  Level FlightAware ADS-B
Thu 10:52:45 AM -10.7664 129.3146 137° Southeast 521 600 37,000  Level FlightAware ADS-B
Thu 10:53:15 AM -10.8210 129.3645 137° Southeast 499 574 37,000  Level Aus ATC (RADAR)
Thu 10:53:45 AM -10.8721 129.4152 137° Southeast 522 601 37,000  Level FlightAware ADS-B
Thu 10:54:15 AM -10.9266 129.4660 137° Southeast 501 577 37,000  Level Aus ATC (RADAR)
Thu 10:54:44 AM -10.9696 129.5083 137° Southeast 524 603 37,000  Level FlightAware ADS-B
Thu 10:55:14 AM -11.0270 129.5631 137° Southeast 524 603 37,000  Level FlightAware ADS-B
Thu 10:55:44 AM -11.0833 129.6169 137° Southeast 525 604 37,000  Level FlightAware ADS-B
Thu 10:56:14 AM -11.1286 129.6603 137° Southeast 526 605 37,000  Level FlightAware ADS-B
Thu 10:57:04 AM -11.2342 129.7612 137° Southeast 528 608 37,000  Level FlightAware ADS-B
Thu 10:57:44 AM -11.2969 129.8213 137° Southeast 530 610 37,000  Level FlightAware ADS-B
Thu 10:58:14 AM -11.3510 129.8731 137° Southeast 533 613 37,000  Level FlightAware ADS-B
Thu 10:58:45 AM -11.4053 129.9252 137° Southeast 534 615 37,000  Level FlightAware ADS-B
Thu 10:59:25 AM -11.4853 130.0019 137° Southeast 535 616 37,000  Level FlightAware ADS-B
Thu 11:00:05 AM -11.5567 130.0704 137° Southeast 536 617 37,000  Level FlightAware ADS-B
Thu 11:00:44 AM -11.6167 130.1280 137° Southeast 536 617 37,000  Level FlightAware ADS-B
Thu 11:01:14 AM -11.6713 130.1806 137° Southeast 537 618 37,000  Level FlightAware ADS-B
Thu 11:01:44 AM -11.7274 130.2344 137° Southeast 536 617 37,000  Level FlightAware ADS-B
Thu 11:02:14 AM -11.7827 130.2876 137° Southeast 536 617 37,000  Level FlightAware ADS-B
Thu 11:02:45 AM -11.8376 130.3405 137° Southeast 536 617 37,000  Level FlightAware ADS-B
Thu 11:03:25 AM -11.9106 130.4108 137° Southeast 536 617 37,000  Level FlightAware ADS-B (CYGK)
Thu 11:04:00 AM -11.9778 130.4755 137° Southeast 536 617 37,000  Level FlightAware ADS-B
Thu 11:04:41 AM -12.0398 130.5354 137° Southeast 536 617 37,000  Level FlightAware ADS-B (CYGK)
Thu 11:05:14 AM -12.1080 130.6013 136° Southeast 537 618 37,000  Level FlightAware ADS-B
Thu 11:05:54 AM -12.1786 130.6690 136° Southeast 520 598 37,000  Level Aus ATC (RADAR)
Thu 11:06:14 AM -12.1959 130.6862 136° Southeast 538 619 37,000  Level FlightAware ADS-B
Thu 11:06:55 AM -12.2893 130.7766 136° Southeast 538 619 37,000  Level FlightAware ADS-B (CYGK)
Thu 11:07:25 AM -12.3458 130.8312 136° Southeast 538 619 37,000  Level FlightAware ADS-B (CYGK)
Thu 11:07:55 AM -12.3950 130.8774 142° Southeast 536 617 37,000  Level FlightAware ADS-B (CYGK)
Thu 11:08:25 AM -12.4623 130.9224 153° Southeast 530 610 37,000  Level FlightAware ADS-B (CYGK)
Thu 11:08:55 AM -12.4804 130.9312 157° South 527 606 37,000  Level FlightAware ADS-B (CYGK)
Thu 11:09:25 AM -12.5987 130.9829 157° South 527 606 37,000  Level FlightAware ADS-B (CYGK)
Thu 11:09:55 AM -12.6575 131.0087 157° South 527 606 37,000  Level FlightAware ADS-B (CYGK)
Thu 11:10:26 AM -12.6983 131.0266 157° South 527 606 37,000  Level FlightAware ADS-B (CYGK)
Thu 11:11:05 AM -12.8246 131.0821 157° South 527 606 37,000  Level FlightAware ADS-B
Thu 11:11:55 AM -12.9327 131.1296 157° South 525 604 37,000  Level FlightAware ADS-B (CYGK)
Thu 11:12:25 AM -13.0016 131.1599 157° South 526 605 37,000  Level FlightAware ADS-B (CYGK)
Thu 11:12:55 AM -13.0204 131.1682 157° South 526 605 37,000  Level FlightAware ADS-B (CYGK)
Thu 11:13:25 AM -13.1241 131.2139 157° South 527 606 37,000  Level FlightAware ADS-B (CYGK)
Thu 11:14:04 AM -13.2341 131.2623 157° South 527 606 37,000  Level FlightAware ADS-B
Thu 11:14:44 AM -13.2844 131.2845 157° South 527 606 37,000  Level FlightAware ADS-B
Thu 11:15:15 AM -13.3690 131.3218 157° South 529 609 37,000  Level FlightAware ADS-B
Thu 11:15:48 AM -13.4572 131.3588 157° South 525 604 37,000  Level Aus ATC (RADAR)
Thu 11:16:03 AM -13.5002 131.3798 157° South 530 610 37,000  Level FlightAware ADS-B
Thu 11:16:46 AM -13.5738 131.4124 157° South 530 610 37,000  Level FlightAware ADS-B
Thu 11:17:25 AM -13.6859 131.4620 157° South 527 606 37,000  Level FlightAware ADS-B
Thu 11:17:58 AM -13.7495 131.4876 157° South 518 596 37,000  Level Aus ATC (RADAR)
Thu 11:18:14 AM -13.7706 131.4995 157° South 526 605 37,000  Level FlightAware ADS-B
Thu 11:18:45 AM -13.8441 131.5320 157° South 525 604 37,000  Level FlightAware ADS-B
Thu 11:19:26 AM -13.9411 131.5750 157° South 524 603 37,000  Level FlightAware ADS-B
Thu 11:20:05 AM -14.0456 131.6214 157° South 524 603 37,000  Level FlightAware ADS-B
Thu 11:20:44 AM -14.1090 131.6496 157° South 524 603 37,000  Level FlightAware ADS-B
Thu 11:21:14 AM -14.1760 131.6794 157° South 525 604 37,000  Level FlightAware ADS-B
Thu 11:21:44 AM -14.2570 131.7154 157° South 525 604 37,000  Level FlightAware ADS-B
Thu 11:22:17 AM -14.3303 131.7445 157° South 517 595 37,000  Level Aus ATC (RADAR)
Thu 11:22:25 AM -14.3586 131.7606 157° South 524 603 37,000  Level FlightAware ADS-B
Thu 11:23:05 AM -14.4479 131.8005 157° South 524 603 37,000  Level FlightAware ADS-B
Thu 11:23:46 AM -14.5128 131.8294 157° South 526 605 37,000  Level FlightAware ADS-B
Thu 11:24:22 AM -14.6077 131.8744 157° South 519 597 37,000  Level Aus ATC (RADAR)
Thu 11:24:43 AM -14.6259 131.8799 157° South 525 604 37,000  Level FlightAware ADS-B
Thu 11:25:32 AM -14.7655 131.9400 157° South 515 593 37,000  Level Aus ATC (RADAR)
Thu 11:25:55 AM -14.6952 131.9109 156° South 528 608 37,000  Level FlightAware ADS-B
Thu 11:26:37 AM -14.9115 132.0054 156° South 517 595 37,000  Level Aus ATC (RADAR)
Thu 11:27:37 AM -15.0470 132.0659 157° South 522 601 37,000  Level Aus ATC (RADAR)
Thu 11:28:46 AM -15.2048 132.1373 156° South 522 601 37,000  Level Aus ATC (RADAR)
Thu 11:29:46 AM -15.3408 132.1986 156° South 523 602 37,000  Level Aus ATC (RADAR)
Thu 11:30:56 AM -15.4990 132.2704 156° South 523 602 37,000  Level Aus ATC (RADAR)
Thu 11:32:06 AM -15.6560 132.3404 157° South 519 597 37,000  Level Aus ATC (RADAR)
Thu 11:33:06 AM -15.7894 132.4006 157° South 517 595 37,000  Level Aus ATC (RADAR)
Thu 11:34:11 AM -15.9340 132.4680 156° South 521 600 37,000  Level Aus ATC (RADAR)
Thu 11:35:16 AM -16.0780 132.5357 156° South 517 595 37,000  Level Aus ATC (RADAR)
Thu 11:36:20 AM -16.2252 132.6025 156° South 538 619 37,000  Level Aus ATC (RADAR)
Thu 11:37:30 AM -16.3797 132.6763 155° Southeast 520 598 37,000  Level Aus ATC (RADAR)
Thu 11:38:30 AM -16.5140 132.7399 156° South 523 602 37,000  Level Aus ATC (RADAR)
Thu 11:39:35 AM -16.6609 132.8021 158° South 522 601 37,000  Level Aus ATC (RADAR)
Thu 11:40:45 AM -16.8212 132.8733 157° South 525 604 37,000  Level Aus ATC (RADAR)
Thu 11:41:45 AM -16.9564 132.9373 156° South 526 605 37,000  Level Aus ATC (RADAR)
Thu 11:42:50 AM -17.1031 133.0090 155° Southeast 532 612 37,000  Level Aus ATC (RADAR)
Thu 11:43:55 AM -17.2505 133.0776 156° South 531 611 37,000  Level Aus ATC (RADAR)
Thu 11:45:00 AM -17.3983 133.1445 157° South 532 612 37,000 96 Level Aus ATC (RADAR)
Thu 11:46:00 AM -17.5351 133.2077 156° South 537 618 37,200 93 Climbing Aus ATC (RADAR)
Thu 11:47:09 AM -17.6962 133.2720 159° South 539 620 37,200  Level Aus ATC (RADAR)
Thu 11:48:14 AM -17.8463 133.3345 158° South 533 613  Descending Aus ATC (RADAR)
Thu 11:49:19 AM -17.9932 133.4267 149° Southeast 555 639 37,200 17,169 Climbing Aus ATC (RADAR)
Thu 11:50:24 AM -18.1407 133.4862 159° South 535 616 37,200 -6 Level Aus ATC (RADAR)
Thu 11:51:29 AM -18.2945 133.5451 160° South 545 627 -6 Descending Aus ATC (RADAR)
Thu 11:52:29 AM -18.4374 133.6060 158° South 551 634 1,157 Level Aus ATC (RADAR)
Thu 12:23:17 PM -22.7998 135.8528 334° Northwest 37,000 1,194 Climbing Aus ATC (Calculated)
Thu 12:23:28 PM -22.7788 135.8414 153° Southeast 556 640 37,000  Level FlightAware ADS-B
Thu 12:24:43 PM -22.9531 135.9359 153° Southeast 555 639 37,000  Level FlightAware ADS-B
Thu 12:27:00 PM -23.2354 136.0896 153° Southeast  Level FlightAware Approximate
Thu 12:28:00 PM -23.3589 136.1571 153° Southeast  Level FlightAware Approximate
Thu 12:28:11 PM -23.4944 136.2314 153° Southeast 37,000  Level Aus ATC (Calculated)
Thu 12:30:00 PM -23.7188 136.3546 153° Southeast  Level FlightAware Approximate
Thu 12:31:00 PM -23.8422 136.4226 153° Southeast  Level FlightAware Approximate
Thu 12:31:44 PM -23.9747 136.4958 153° Southeast 37,000  Level Aus ATC (Calculated)
Thu 12:32:00 PM -23.9656 136.4908 153° Southeast  Level FlightAware Approximate
Thu 12:33:00 PM -24.1310 136.5823 153° Southeast  Level FlightAware Approximate
Thu 12:33:11 PM -24.1880 136.6139 153° Southeast 37,000  Level Aus ATC (Calculated)
Thu 12:35:00 PM -24.4120 136.7385 153° Southeast  Level FlightAware Approximate
Thu 12:35:51 PM -24.6090 136.8484 152° Southeast 37,000  Level Aus ATC (Calculated)
Thu 12:36:00 PM -24.5353 136.8073 153° Southeast  Level FlightAware Approximate
Thu 12:37:00 PM -24.7507 136.9278 153° Southeast  Level FlightAware Approximate
Thu 12:38:00 PM -24.8739 136.9969 153° Southeast  Level FlightAware Approximate
Thu 12:39:00 PM -24.9971 137.0662 153° Southeast  Level FlightAware Approximate
Thu 12:40:00 PM -25.1202 137.1356 153° Southeast  Level FlightAware Approximate
Thu 12:40:45 PM -25.2266 137.1957 152° Southeast 37,000  Level Aus ATC (Calculated)
Thu 12:41:00 PM -25.2433 137.2052 153° Southeast  Level FlightAware Approximate
Thu 12:42:00 PM -25.3804 137.2829 153° Southeast  Level FlightAware Approximate
Thu 12:43:00 PM -25.5035 137.3527 153° Southeast  Level FlightAware Approximate
Thu 12:44:00 PM -25.6265 137.4227 153° Southeast  Level FlightAware Approximate
Thu 12:45:00 PM -25.7495 137.4929 153° Southeast  Level FlightAware Approximate
Thu 12:45:45 PM -25.9203 137.5906 152° Southeast 37,000  Level Aus ATC (Calculated)
Thu 12:47:00 PM -26.0739 137.6788 153° Southeast  Level FlightAware Approximate
Thu 12:47:05 PM -26.0744 137.6790 152° Southeast 37,000  Level Aus ATC (Calculated)
Thu 12:48:00 PM -26.1968 137.7495 153° Southeast  Level FlightAware Approximate
Thu 12:49:00 PM -26.3098 137.8146 153° Southeast  Level FlightAware Approximate
Thu 12:50:00 PM -26.4325 137.8856 153° Southeast  Level FlightAware Approximate
Thu 12:50:44 PM -26.6129 137.9902 152° Southeast 37,000  Level Aus ATC (Calculated)
Thu 12:51:00 PM -26.5553 137.9567 153° Southeast  Level FlightAware Approximate
Thu 12:52:00 PM -26.7683 138.0806 153° Southeast  Level FlightAware Approximate
Thu 12:52:45 PM -26.9203 138.1693 152° Southeast 37,000  Level Aus ATC (Calculated)
Thu 12:53:00 PM -26.8909 138.1521 153° Southeast  Level FlightAware Approximate
Thu 12:54:00 PM -27.0757 138.2542 152° Southeast  Level Estimated
Thu 12:54:18 PM -27.0938 138.2708 151° Southeast 37,000  Level Aus ATC (Calculated)
Thu 12:54:58 PM -27.1804 138.3217 151° Southeast 37,000  Level Aus ATC (Calculated)
Thu 12:56:00 PM -27.3070 138.3962 152° Southeast  Level FlightAware Approximate
Thu 12:56:45 PM -27.4404 138.4748 151° Southeast 37,000  Level Aus ATC (Calculated)
Thu 12:57:00 PM -27.4295 138.4684 152° Southeast  Level FlightAware Approximate
Thu 12:58:00 PM -27.5934 138.5654 152° Southeast  Level FlightAware Approximate
Thu 12:59:00 PM -27.7158 138.6380 152° Southeast  Level FlightAware Approximate
Thu 12:59:53 PM -27.7867 138.6801 151° Southeast 37,000  Level Aus ATC (Calculated)
Thu 01:01:00 PM -27.9263 138.7633 152° Southeast  Level FlightAware Approximate
Thu 01:02:00 PM -28.0513 138.8380 152° Southeast  Level FlightAware Approximate
Thu 01:03:00 PM -28.1762 138.9128 152° Southeast  Level FlightAware Approximate
Thu 01:04:00 PM -28.3011 138.9879 152° Southeast  Level FlightAware Approximate
Thu 01:04:52 PM -28.4783 139.0946 151° Southeast 37,000  Level Aus ATC (Calculated)
Thu 01:05:00 PM -28.4259 139.0630 152° Southeast  Level FlightAware Approximate
Thu 01:06:00 PM -28.6197 139.1801 152° Southeast  Level FlightAware Approximate
Thu 01:07:00 PM -28.7444 139.2558 152° Southeast  Level FlightAware Approximate
Thu 01:08:00 PM -28.8692 139.3316 152° Southeast  Level FlightAware Approximate
Thu 01:09:00 PM -28.9938 139.4077 152° Southeast  Level FlightAware Approximate
Thu 01:09:52 PM -29.1685 139.5145 150° Southeast 37,000  Level Aus ATC (Calculated)
Thu 01:10:00 PM -29.1185 139.4839 152° Southeast  Level FlightAware Approximate
Thu 01:11:00 PM -29.3097 139.6012 152° Southeast  Level FlightAware Approximate
Thu 01:11:38 PM -29.3408 139.6204 150° Southeast 37,000  Level Aus ATC (Calculated)
Thu 01:12:47 PM -29.5131 139.7266 150° Southeast 37,000  Level Aus ATC (Calculated)
Thu 01:13:00 PM -29.5110 139.7253 152° Southeast  Level FlightAware Approximate
Thu 01:14:00 PM -29.6645 139.8203 152° Southeast  Level FlightAware Approximate
Thu 01:14:51 PM -29.7897 139.9053 150° Southeast 37,000  Level Aus ATC (Calculated)
Thu 01:15:00 PM -29.7889 139.8975 152° Southeast  Level FlightAware Approximate
Thu 01:15:31 PM -29.8942 139.9777 150° Southeast 37,000  Level Aus ATC (Calculated)
Thu 01:16:00 PM -29.9355 139.9881 149° Southeast  Level Estimated
Thu 01:17:00 PM -30.0737 140.1026 149° Southeast  Level FlightAware Approximate
Thu 01:18:00 PM -30.1947 140.1870 149° Southeast  Level FlightAware Approximate
Thu 01:19:00 PM -30.3157 140.2716 149° Southeast  Level FlightAware Approximate
Thu 01:20:00 PM -30.4366 140.3564 149° Southeast  Level FlightAware Approximate
Thu 01:20:26 PM -30.5200 140.4151 150° Southeast 37,000  Level Aus ATC (Calculated)
Thu 01:22:00 PM -30.7092 140.5487 149° Southeast  Level FlightAware Approximate
Thu 01:23:00 PM -30.8299 140.6342 149° Southeast  Level FlightAware Approximate
Thu 01:24:00 PM -30.9506 140.7200 149° Southeast  Level FlightAware Approximate
Thu 01:25:00 PM -31.0712 140.8059 149° Southeast  Level FlightAware Approximate
Thu 01:25:25 PM -31.1443 140.8582 150° Southeast 37,000  Level Aus ATC (Calculated)
Thu 01:26:00 PM -31.1917 140.8921 149° Southeast  Level FlightAware Approximate
Thu 01:27:00 PM -31.3351 140.9949 149° Southeast  Level FlightAware Approximate
Thu 01:28:00 PM -31.4555 141.0816 148° Southeast  Level FlightAware Approximate
Thu 01:28:55 PM -31.5955 141.1837 151° Southeast 37,000  Level Aus ATC (Calculated)
Thu 01:29:00 PM -31.5830 141.1528 148° Southeast  Level Estimated
Thu 01:30:00 PM -31.7256 141.2785 148° Southeast  Level FlightAware Approximate
Thu 01:31:00 PM -31.8456 141.3662 148° Southeast  Level FlightAware Approximate
Thu 01:32:00 PM -31.9656 141.4542 148° Southeast  Level FlightAware Approximate
Thu 01:33:00 PM -32.0855 141.5424 148° Southeast  Level FlightAware Approximate
Thu 01:34:00 PM -32.2136 141.6128 154° Southeast  Level Estimated
Thu 01:34:19 PM -32.1737 141.5784 154° Southeast 37,000  Level Aus ATC (Calculated)
Thu 01:36:00 PM -32.3879 141.7007 154° Southeast  Level FlightAware Approximate
Thu 01:37:00 PM -32.5151 141.7737 154° Southeast  Level FlightAware Approximate
Thu 01:37:34 PM -32.4130 141.7148 154° Southeast 504 580 37,000  Level FlightAware ADS-B
Thu 01:37:56 PM -32.6348 141.8425 334° Northwest 37,000  Level Aus ATC (Calculated)
Thu 01:38:00 PM -32.6423 141.8468 154° Southeast  Level FlightAware Approximate
Thu 01:38:05 PM -32.4760 141.7509 154° Southeast 504 580 37,000  Level FlightAware ADS-B
Thu 01:39:13 PM -32.6199 141.8338 154° Southeast 496 571 37,000  Level FlightAware ADS-B
Thu 01:39:14 PM -32.8076 141.9423 334° Northwest 37,000  Level Aus ATC (Calculated)
Thu 01:39:55 PM -32.7052 141.8829 154° Southeast 491 565 37,000  Level FlightAware ADS-B
Thu 01:40:35 PM -32.7893 141.9315 154° Southeast 491 565 37,000  Level FlightAware ADS-B
Thu 01:40:49 PM -33.0378 142.0759 334° Northwest 37,000  Level Aus ATC (Calculated)
Thu 01:41:15 PM -32.8677 141.9769 154° Southeast 491 565 37,000  Level FlightAware ADS-B
Thu 01:41:42 PM -33.1528 142.1430 334° Northwest 37,000  Level Aus ATC (Calculated)
Thu 01:41:56 PM -32.9475 142.0232 154° Southeast 492 566 37,000  Level FlightAware ADS-B
Thu 01:42:36 PM -33.0231 142.0673 154° Southeast 491 565 37,000  Level FlightAware ADS-B
Thu 01:43:16 PM -33.1131 142.1197 154° Southeast 492 566 37,000  Level FlightAware ADS-B
Thu 01:43:51 PM -33.1888 142.1639 154° Southeast 490 564 37,000  Level FlightAware ADS-B
Thu 01:43:58 PM -33.4403 142.3114 334° Northwest 37,000  Level Aus ATC (Calculated)
Thu 01:44:35 PM -33.2643 142.2080 154° Southeast 490 564 37,000  Level FlightAware ADS-B
Thu 01:45:15 PM -33.3598 142.2640 154° Southeast 488 562 37,000  Level FlightAware ADS-B
Thu 01:45:54 PM -33.6700 142.4469 334° Northwest 37,000  Level Aus ATC (Calculated)
Thu 01:45:55 PM -33.4384 142.3102 154° Southeast 488 562 37,000  Level FlightAware ADS-B
Thu 01:46:36 PM -33.5169 142.3575 152° Southeast 486 559 37,000  Level FlightAware ADS-B
Thu 01:47:17 PM -33.6037 142.4117 152° Southeast 483 556 37,000  Level FlightAware ADS-B
Thu 01:47:56 PM -33.6788 142.4586 153° Southeast 485 558 37,000  Level FlightAware ADS-B
Thu 01:48:37 PM -33.7607 142.5096 153° Southeast 482 555 37,000  Level FlightAware ADS-B
Thu 01:49:17 PM -33.8368 142.5568 153° Southeast 482 555 37,000  Level FlightAware ADS-B
Thu 01:49:55 PM -33.9080 142.6010 153° Southeast 480 552 37,000  Level FlightAware ADS-B
Thu 01:50:36 PM -33.9997 142.6584 153° Southeast 481 554 37,000 333 Level FlightAware ADS-B
Thu 01:51:07 PM -34.0619 142.6947 153° Southeast 481 554 37,400  Climbing Aus ATC (RADAR)
Thu 01:51:17 PM -34.0780 142.7072 152° Southeast 480 552 37,000 -490 Descending FlightAware ADS-B
Thu 01:51:56 PM -34.1535 142.7547 152° Southeast 480 552 37,000  Level FlightAware ADS-B
Thu 01:52:36 PM -34.2330 142.8048 152° Southeast 481 554 37,000  Level FlightAware ADS-B
Thu 01:53:16 PM -34.3061 142.8508 152° Southeast 482 555 37,000  Level FlightAware ADS-B
Thu 01:53:57 PM -34.3957 142.9074 152° Southeast 480 552 37,000  Level FlightAware ADS-B
Thu 01:54:36 PM -34.4729 142.9563 152° Southeast 481 554 37,000  Level FlightAware ADS-B
Thu 01:55:17 PM -34.5431 143.0007 152° Southeast 480 552 37,000  Level FlightAware ADS-B
Thu 01:55:56 PM -34.6217 143.0508 152° Southeast 480 552 37,000 324 Level FlightAware ADS-B
Thu 01:56:31 PM -34.6991 143.1039 152° Southeast 478 550 37,400  Climbing Aus ATC (RADAR)
Thu 01:56:34 PM -34.6932 143.0964 152° Southeast 478 550 37,000 -522 Descending FlightAware ADS-B
Thu 01:57:17 PM -34.7878 143.1568 152° Southeast 477 549 37,000  Level FlightAware ADS-B
Thu 01:57:56 PM -34.8641 143.2056 152° Southeast 477 549 37,000  Level FlightAware ADS-B
Thu 01:58:37 PM -34.9436 143.2566 152° Southeast 480 552 37,000  Level FlightAware ADS-B
Thu 01:59:15 PM -35.0202 143.3058 152° Southeast 481 554 37,000  Level FlightAware ADS-B
Thu 01:59:55 PM -35.0268 143.3100 152° Southeast 481 554 37,000  Level FlightAware ADS-B
Thu 02:00:35 PM -35.1773 143.4071 152° Southeast 482 555 37,000  Level FlightAware ADS-B
Thu 02:01:35 PM -35.2965 143.4842 152° Southeast 482 555 37,000 264 Level FlightAware ADS-B
Thu 02:02:06 PM -35.3565 143.5245 152° Southeast 477 549 37,400  Climbing Aus ATC (RADAR)
Thu 02:02:17 PM -35.3780 143.5373 152° Southeast 478 550 37,000 -471 Descending FlightAware ADS-B
Thu 02:02:57 PM -35.4563 143.5882 152° Southeast 475 547 37,000  Level FlightAware ADS-B
Thu 02:03:27 PM -35.5137 143.6255 152° Southeast 475 547 37,000  Level FlightAware ADS-B
Thu 02:03:57 PM -35.5733 143.6644 152° Southeast 478 550 37,000  Level FlightAware ADS-B
Thu 02:04:37 PM -35.6511 143.7154 151° Southeast 473 544 37,000  Level FlightAware ADS-B
Thu 02:05:17 PM -35.7289 143.7665 152° Southeast 479 551 37,000  Level FlightAware ADS-B
Thu 02:05:57 PM -35.8070 143.8178 152° Southeast 479 551 37,000  Level FlightAware ADS-B
Thu 02:06:37 PM -35.8847 143.8689 152° Southeast 478 550 37,000 -225 Level FlightAware ADS-B
Thu 02:07:17 PM -35.9625 143.9203 152° Southeast 471 542 36,700 -1,443 Descending FlightAware ADS-B
Thu 02:07:56 PM -36.0257 143.9619 151° Southeast 464 534 35,100 -2,810 Descending FlightAware ADS-B
Thu 02:08:36 PM -36.1130 144.0201 152° Southeast 460 529 33,000 -3,190 Descending FlightAware ADS-B
Thu 02:09:15 PM -36.1853 144.0680 152° Southeast 458 527 30,900 -3,000 Descending FlightAware ADS-B
Thu 02:09:56 PM -36.2630 144.1198 152° Southeast 459 528 29,000 -2,754 Descending FlightAware ADS-B
Thu 02:10:16 PM -36.3000 144.1445 151° Southeast 444 511 28,100 -2,800 Descending FlightAware ADS-B
Thu 02:10:56 PM -36.3667 144.1889 151° Southeast 441 507 26,200 -2,741 Descending FlightAware ADS-B
Thu 02:11:37 PM -36.4441 144.2411 151° Southeast 437 503 24,400 -2,100 Descending FlightAware ADS-B
Thu 02:12:16 PM -36.4891 144.2711 152° Southeast 431 496 23,400 -1,655 Descending FlightAware ADS-B
Thu 02:12:35 PM -36.5460 144.3090 151° Southeast 429 494 22,800 -2,542 Descending FlightAware ADS-B
Thu 02:13:15 PM -36.5932 144.3409 152° Southeast 415 478 20,900 -2,780 Descending FlightAware ADS-B
Thu 02:13:57 PM -36.6838 144.4022 152° Southeast 407 468 19,000 -2,657 Descending FlightAware ADS-B
Thu 02:14:25 PM -36.7280 144.4320 151° Southeast 403 464 17,800 -2,763 Descending FlightAware ADS-B
Thu 02:15:13 PM -36.8090 144.4870 151° Southeast 395 455 15,500 -2,786 Descending FlightAware ADS-B
Thu 02:15:49 PM -36.8650 144.5250 151° Southeast 388 447 13,900 -2,750 Descending FlightAware ADS-B
Thu 02:16:25 PM -36.9230 144.5640 151° Southeast 385 443 12,200 -2,545 Descending FlightAware ADS-B
Thu 02:16:55 PM -36.9700 144.5960 151° Southeast 374 430 11,100 -2,038 Descending FlightAware ADS-B
Thu 02:17:18 PM -36.9926 144.6118 151° Southeast 362 417 10,400 -2,341 Descending FlightAware ADS-B
Thu 02:17:36 PM -37.0301 144.6375 151° Southeast 363 418 9,500 -2,700 Descending FlightAware ADS-B
Thu 02:17:58 PM -37.0629 144.6596 152° Southeast 357 411 8,600 -2,432 Descending FlightAware ADS-B
Thu 02:18:13 PM -37.0850 144.6740 151° Southeast 356 410 8,000 -1,636 Descending FlightAware ADS-B
Thu 02:18:31 PM -37.1090 144.6910 151° Southeast 342 394 7,700 -545 Descending FlightAware ADS-B
Thu 02:18:57 PM -37.1396 144.7119 151° Southeast 324 373 7,600 -261 Descending FlightAware ADS-B
Thu 02:19:17 PM -37.1713 144.7301 162° South 315 362 7,500 -1,024 Descending FlightAware ADS-B
Thu 02:19:38 PM -37.2009 144.7385 172° South 335 386 6,900 -1,463 Descending FlightAware ADS-B
Thu 02:19:58 PM -37.2331 144.7452 170° South 324 373 6,500 -1,463 Descending FlightAware ADS-B
Thu 02:20:19 PM -37.2632 144.7517 170° South 317 365 5,900 -1,350 Descending FlightAware ADS-B
Thu 02:20:38 PM -37.2894 144.7573 170° South 305 351 5,600 -923 Descending FlightAware ADS-B
Thu 02:20:58 PM -37.3135 144.7625 170° South 293 337 5,300 -923 Descending FlightAware ADS-B
Thu 02:21:17 PM -37.3400 144.7681 170° South 283 326 5,000 -900 Descending FlightAware ADS-B
Thu 02:21:38 PM -37.3556 144.7718 169° South 271 312 4,700 -732 Descending FlightAware ADS-B
Thu 02:21:58 PM -37.3903 144.7805 169° South 257 296 4,500 -585 Descending FlightAware ADS-B
Thu 02:22:19 PM -37.4161 144.7870 169° South 239 275 4,300 -600 Descending FlightAware ADS-B
Thu 02:22:38 PM -37.4365 144.7921 169° South 218 251 4,100 -436 Descending FlightAware ADS-B
Thu 02:23:14 PM -37.4702 144.8002 169° South 204 235 3,900 -588 Descending Aus ATC (RADAR)
Thu 02:23:29 PM -37.4823 144.8026 169° South 178 205 3,600 -1,222 Descending FlightAware ADS-B
Thu 02:24:08 PM -37.5138 144.8091 172° South 182 209 2,800 -842 Descending FlightAware ADS-B
Thu 02:25:23 PM -37.5747 144.8202 172° South 164 189 2,000 -686 Descending Aus ATC (RADAR)
Thu 02:26:28 PM -37.6161 144.8277 172° South 137 158 1,200 -756 Descending Aus ATC (RADAR)
Thu 02:27:38 PM -37.6614 144.8363 171° South 140 161 300 -565 Descending Aus ATC (RADAR)
Thu 02:27:53 PM -37.6684 144.8371 175° South 106 122 400 400 Climbing Aus ATC (RADAR)

Login

Don't have an account? Register now (free) for customized features, flight alerts, and more!